sensor_id;sensor_type;location;lat;lon;timestamp;P1;durP1;ratioP1;P2;durP2;ratioP2
3911;SDS011;1971;51.778;10.330;2024-03-23T00:55:18;5.27;;;3.53;;
3911;SDS011;1971;51.778;10.330;2024-03-23T00:57:44;6.10;;;4.07;;
3911;SDS011;1971;51.778;10.330;2024-03-23T01:00:11;6.93;;;4.00;;
3911;SDS011;1971;51.778;10.330;2024-03-23T01:02:38;5.13;;;3.93;;
3911;SDS011;1971;51.778;10.330;2024-03-23T01:05:07;6.17;;;4.13;;
3911;SDS011;1971;51.778;10.330;2024-03-23T01:07:33;5.37;;;4.83;;
3911;SDS011;1971;51.778;10.330;2024-03-23T01:10:00;3.83;;;3.53;;
3911;SDS011;1971;51.778;10.330;2024-03-23T01:12:26;5.27;;;4.77;;
3911;SDS011;1971;51.778;10.330;2024-03-23T01:14:53;5.27;;;4.40;;
3911;SDS011;1971;51.778;10.330;2024-03-23T01:17:19;5.33;;;3.90;;
3911;SDS011;1971;51.778;10.330;2024-03-23T01:19:45;6.50;;;4.77;;
3911;SDS011;1971;51.778;10.330;2024-03-23T01:22:14;7.10;;;4.77;;
3911;SDS011;1971;51.778;10.330;2024-03-23T01:24:41;6.30;;;5.03;;
3911;SDS011;1971;51.778;10.330;2024-03-23T01:27:08;6.67;;;4.77;;
3911;SDS011;1971;51.778;10.330;2024-03-23T01:29:34;4.60;;;4.20;;
3911;SDS011;1971;51.778;10.330;2024-03-23T01:32:01;5.50;;;4.63;;
3911;SDS011;1971;51.778;10.330;2024-03-23T01:34:27;4.87;;;4.40;;
3911;SDS011;1971;51.778;10.330;2024-03-23T01:36:54;5.10;;;4.60;;
3911;SDS011;1971;51.778;10.330;2024-03-23T01:39:23;7.83;;;5.43;;
3911;SDS011;1971;51.778;10.330;2024-03-23T01:41:49;6.90;;;4.93;;
3911;SDS011;1971;51.778;10.330;2024-03-23T01:44:16;5.40;;;4.90;;
3911;SDS011;1971;51.778;10.330;2024-03-23T01:46:43;4.63;;;4.23;;
3911;SDS011;1971;51.778;10.330;2024-03-23T01:49:10;4.57;;;4.13;;
3911;SDS011;1971;51.778;10.330;2024-03-23T01:51:38;4.67;;;4.13;;
3911;SDS011;1971;51.778;10.330;2024-03-23T01:54:04;6.03;;;5.13;;
3911;SDS011;1971;51.778;10.330;2024-03-23T01:56:35;5.00;;;4.50;;
3911;SDS011;1971;51.778;10.330;2024-03-23T01:59:01;7.87;;;4.57;;
3911;SDS011;1971;51.778;10.330;2024-03-23T02:01:28;4.37;;;4.00;;
3911;SDS011;1971;51.778;10.330;2024-03-23T02:03:55;4.83;;;4.43;;
3911;SDS011;1971;51.778;10.330;2024-03-23T02:06:21;5.33;;;4.73;;
3911;SDS011;1971;51.778;10.330;2024-03-23T02:08:48;5.57;;;4.67;;
3911;SDS011;1971;51.778;10.330;2024-03-23T02:11:14;7.43;;;4.70;;
3911;SDS011;1971;51.778;10.330;2024-03-23T02:13:44;5.53;;;4.30;;
3911;SDS011;1971;51.778;10.330;2024-03-23T02:16:10;5.73;;;5.17;;
3911;SDS011;1971;51.778;10.330;2024-03-23T02:18:37;4.17;;;3.77;;
3911;SDS011;1971;51.778;10.330;2024-03-23T02:21:03;6.17;;;4.00;;
3911;SDS011;1971;51.778;10.330;2024-03-23T02:23:32;3.33;;;3.03;;
3911;SDS011;1971;51.778;10.330;2024-03-23T02:25:59;3.07;;;2.80;;
3911;SDS011;1971;51.778;10.330;2024-03-23T02:28:25;1.90;;;1.80;;
3911;SDS011;1971;51.778;10.330;2024-03-23T02:30:51;2.50;;;1.97;;
3911;SDS011;1971;51.778;10.330;2024-03-23T02:33:18;2.80;;;2.10;;
3911;SDS011;1971;51.778;10.330;2024-03-23T02:35:45;3.03;;;2.07;;
3911;SDS011;1971;51.778;10.330;2024-03-23T02:38:11;2.53;;;2.33;;
3911;SDS011;1971;51.778;10.330;2024-03-23T02:40:40;2.90;;;1.80;;
3911;SDS011;1971;51.778;10.330;2024-03-23T02:43:07;2.10;;;1.90;;
3911;SDS011;1971;51.778;10.330;2024-03-23T02:45:33;2.67;;;2.17;;
3911;SDS011;1971;51.778;10.330;2024-03-23T02:48:00;1.53;;;1.43;;
3911;SDS011;1971;51.778;10.330;2024-03-23T02:50:26;1.83;;;1.73;;
3911;SDS011;1971;51.778;10.330;2024-03-23T02:52:52;4.80;;;2.03;;
3911;SDS011;1971;51.778;10.330;2024-03-23T02:55:19;1.83;;;1.73;;
3911;SDS011;1971;51.778;10.330;2024-03-23T02:57:48;2.03;;;1.87;;
3911;SDS011;1971;51.778;10.330;2024-03-23T03:00:14;2.23;;;2.07;;
3911;SDS011;1971;51.778;10.330;2024-03-23T03:02:41;1.57;;;1.47;;
3911;SDS011;1971;51.778;10.330;2024-03-23T03:05:08;1.40;;;1.30;;
3911;SDS011;1971;51.778;10.330;2024-03-23T03:07:34;1.80;;;1.70;;
3911;SDS011;1971;51.778;10.330;2024-03-23T03:10:01;1.20;;;1.10;;
3911;SDS011;1971;51.778;10.330;2024-03-23T03:12:27;1.13;;;1.03;;
3911;SDS011;1971;51.778;10.330;2024-03-23T03:14:56;1.47;;;1.37;;
3911;SDS011;1971;51.778;10.330;2024-03-23T03:17:23;2.50;;;1.33;;
3911;SDS011;1971;51.778;10.330;2024-03-23T03:19:49;1.43;;;1.33;;
3911;SDS011;1971;51.778;10.330;2024-03-23T03:22:16;1.33;;;1.23;;
3911;SDS011;1971;51.778;10.330;2024-03-23T03:24:43;1.70;;;1.40;;
3911;SDS011;1971;51.778;10.330;2024-03-23T03:27:09;1.00;;;1.00;;
3911;SDS011;1971;51.778;10.330;2024-03-23T03:29:36;1.23;;;1.00;;
3911;SDS011;1971;51.778;10.330;2024-03-23T03:32:05;0.60;;;0.60;;
3911;SDS011;1971;51.778;10.330;2024-03-23T03:34:32;1.17;;;0.70;;
3911;SDS011;1971;51.778;10.330;2024-03-23T03:36:59;0.60;;;0.60;;
3911;SDS011;1971;51.778;10.330;2024-03-23T03:39:26;0.60;;;0.60;;
3911;SDS011;1971;51.778;10.330;2024-03-23T03:41:52;0.93;;;0.60;;
3911;SDS011;1971;51.778;10.330;2024-03-23T03:44:18;0.60;;;0.60;;
3911;SDS011;1971;51.778;10.330;2024-03-23T03:46:45;0.50;;;0.47;;
3911;SDS011;1971;51.778;10.330;2024-03-23T03:49:14;0.50;;;0.47;;
3911;SDS011;1971;51.778;10.330;2024-03-23T03:51:41;0.67;;;0.50;;
3911;SDS011;1971;51.778;10.330;2024-03-23T03:54:07;0.83;;;0.60;;
3911;SDS011;1971;51.778;10.330;2024-03-23T03:56:34;0.80;;;0.67;;
3911;SDS011;1971;51.778;10.330;2024-03-23T03:59:00;0.60;;;0.50;;
3911;SDS011;1971;51.778;10.330;2024-03-23T04:01:27;0.50;;;0.50;;
3911;SDS011;1971;51.778;10.330;2024-03-23T04:03:53;0.50;;;0.50;;
3911;SDS011;1971;51.778;10.330;2024-03-23T04:06:22;0.93;;;0.60;;
3911;SDS011;1971;51.778;10.330;2024-03-23T04:08:48;1.40;;;0.70;;
3911;SDS011;1971;51.778;10.330;2024-03-23T04:11:14;0.60;;;0.50;;
3911;SDS011;1971;51.778;10.330;2024-03-23T04:13:41;0.70;;;0.50;;
3911;SDS011;1971;51.778;10.330;2024-03-23T04:16:08;0.73;;;0.60;;
3911;SDS011;1971;51.778;10.330;2024-03-23T04:18:34;0.80;;;0.67;;
3911;SDS011;1971;51.778;10.330;2024-03-23T04:21:01;0.50;;;0.40;;
3911;SDS011;1971;51.778;10.330;2024-03-23T04:23:31;0.50;;;0.50;;
3911;SDS011;1971;51.778;10.330;2024-03-23T04:26:02;1.30;;;0.63;;
3911;SDS011;1971;51.778;10.330;2024-03-23T04:28:29;1.20;;;0.70;;
3911;SDS011;1971;51.778;10.330;2024-03-23T04:30:56;0.80;;;0.60;;
3911;SDS011;1971;51.778;10.330;2024-03-23T04:33:22;0.50;;;0.40;;
3911;SDS011;1971;51.778;10.330;2024-03-23T04:35:48;0.70;;;0.50;;
3911;SDS011;1971;51.778;10.330;2024-03-23T04:38:15;0.53;;;0.50;;
3911;SDS011;1971;51.778;10.330;2024-03-23T04:40:44;0.50;;;0.40;;
3911;SDS011;1971;51.778;10.330;2024-03-23T04:43:19;0.70;;;0.50;;
3911;SDS011;1971;51.778;10.330;2024-03-23T04:45:45;0.77;;;0.50;;
3911;SDS011;1971;51.778;10.330;2024-03-23T04:48:12;0.50;;;0.40;;
3911;SDS011;1971;51.778;10.330;2024-03-23T04:50:38;0.50;;;0.40;;
3911;SDS011;1971;51.778;10.330;2024-03-23T04:53:05;0.40;;;0.30;;
3911;SDS011;1971;51.778;10.330;2024-03-23T04:55:31;0.40;;;0.30;;
3911;SDS011;1971;51.778;10.330;2024-03-23T04:58:00;0.40;;;0.30;;
3911;SDS011;1971;51.778;10.330;2024-03-23T05:00:27;0.40;;;0.40;;
3911;SDS011;1971;51.778;10.330;2024-03-23T05:02:53;0.40;;;0.40;;
3911;SDS011;1971;51.778;10.330;2024-03-23T05:05:20;0.50;;;0.40;;
3911;SDS011;1971;51.778;10.330;2024-03-23T05:07:46;0.80;;;0.40;;
3911;SDS011;1971;51.778;10.330;2024-03-23T05:10:13;0.47;;;0.40;;
3911;SDS011;1971;51.778;10.330;2024-03-23T05:12:39;0.70;;;0.40;;
3911;SDS011;1971;51.778;10.330;2024-03-23T05:15:08;0.50;;;0.40;;
3911;SDS011;1971;51.778;10.330;2024-03-23T05:17:34;0.70;;;0.50;;
3911;SDS011;1971;51.778;10.330;2024-03-23T05:20:02;0.50;;;0.50;;
3911;SDS011;1971;51.778;10.330;2024-03-23T05:22:28;0.97;;;0.50;;
3911;SDS011;1971;51.778;10.330;2024-03-23T05:24:54;0.50;;;0.50;;
3911;SDS011;1971;51.778;10.330;2024-03-23T05:27:21;0.50;;;0.47;;
3911;SDS011;1971;51.778;10.330;2024-03-23T05:29:47;0.50;;;0.50;;
3911;SDS011;1971;51.778;10.330;2024-03-23T05:32:16;0.50;;;0.40;;
3911;SDS011;1971;51.778;10.330;2024-03-23T05:34:43;0.50;;;0.40;;
3911;SDS011;1971;51.778;10.330;2024-03-23T05:37:10;0.50;;;0.50;;
3911;SDS011;1971;51.778;10.330;2024-03-23T05:39:36;0.50;;;0.50;;
3911;SDS011;1971;51.778;10.330;2024-03-23T05:42:03;1.07;;;0.40;;
3911;SDS011;1971;51.778;10.330;2024-03-23T05:44:30;0.80;;;0.30;;
3911;SDS011;1971;51.778;10.330;2024-03-23T05:46:56;0.50;;;0.40;;
3911;SDS011;1971;51.778;10.330;2024-03-23T05:49:25;0.40;;;0.40;;
3911;SDS011;1971;51.778;10.330;2024-03-23T05:51:52;0.50;;;0.40;;
3911;SDS011;1971;51.778;10.330;2024-03-23T05:54:18;0.63;;;0.50;;
3911;SDS011;1971;51.778;10.330;2024-03-23T05:56:45;0.60;;;0.53;;
3911;SDS011;1971;51.778;10.330;2024-03-23T05:59:11;0.50;;;0.40;;
3911;SDS011;1971;51.778;10.330;2024-03-23T06:01:37;0.50;;;0.40;;
3911;SDS011;1971;51.778;10.330;2024-03-23T06:04:04;1.20;;;0.50;;
3911;SDS011;1971;51.778;10.330;2024-03-23T06:06:33;1.03;;;0.93;;
3911;SDS011;1971;51.778;10.330;2024-03-23T06:08:59;0.60;;;0.40;;
3911;SDS011;1971;51.778;10.330;2024-03-23T06:11:26;0.50;;;0.43;;
3911;SDS011;1971;51.778;10.330;2024-03-23T06:13:52;0.50;;;0.50;;
3911;SDS011;1971;51.778;10.330;2024-03-23T06:16:18;0.50;;;0.50;;
3911;SDS011;1971;51.778;10.330;2024-03-23T06:18:45;0.60;;;0.60;;
3911;SDS011;1971;51.778;10.330;2024-03-23T06:21:13;0.50;;;0.50;;
3911;SDS011;1971;51.778;10.330;2024-03-23T06:23:42;0.50;;;0.50;;
3911;SDS011;1971;51.778;10.330;2024-03-23T06:26:09;0.50;;;0.40;;
3911;SDS011;1971;51.778;10.330;2024-03-23T06:28:35;0.50;;;0.50;;
3911;SDS011;1971;51.778;10.330;2024-03-23T06:31:02;0.50;;;0.40;;
3911;SDS011;1971;51.778;10.330;2024-03-23T06:33:28;0.50;;;0.40;;
3911;SDS011;1971;51.778;10.330;2024-03-23T06:35:55;0.50;;;0.40;;
3911;SDS011;1971;51.778;10.330;2024-03-23T06:38:21;0.90;;;0.70;;
3911;SDS011;1971;51.778;10.330;2024-03-23T06:40:50;0.60;;;0.50;;
3911;SDS011;1971;51.778;10.330;2024-03-23T06:43:16;6.50;;;5.90;;
3911;SDS011;1971;51.778;10.330;2024-03-23T06:45:43;0.80;;;0.80;;
3911;SDS011;1971;51.778;10.330;2024-03-23T06:48:10;0.43;;;0.43;;
3911;SDS011;1971;51.778;10.330;2024-03-23T06:50:37;2.00;;;1.80;;
3911;SDS011;1971;51.778;10.330;2024-03-23T06:53:03;1.80;;;1.70;;
3911;SDS011;1971;51.778;10.330;2024-03-23T06:55:30;0.50;;;0.50;;
3911;SDS011;1971;51.778;10.330;2024-03-23T06:57:59;0.60;;;0.50;;
3911;SDS011;1971;51.778;10.330;2024-03-23T07:00:25;1.30;;;0.97;;
3911;SDS011;1971;51.778;10.330;2024-03-23T07:02:52;0.93;;;0.50;;
3911;SDS011;1971;51.778;10.330;2024-03-23T07:05:18;0.70;;;0.70;;
3911;SDS011;1971;51.778;10.330;2024-03-23T07:07:45;0.57;;;0.57;;
3911;SDS011;1971;51.778;10.330;2024-03-23T07:10:11;0.60;;;0.60;;
3911;SDS011;1971;51.778;10.330;2024-03-23T07:12:38;1.47;;;1.40;;
3911;SDS011;1971;51.778;10.330;2024-03-23T07:15:07;1.43;;;1.43;;
3911;SDS011;1971;51.778;10.330;2024-03-23T07:17:34;0.50;;;0.40;;
3911;SDS011;1971;51.778;10.330;2024-03-23T07:20:01;0.50;;;0.40;;
3911;SDS011;1971;51.778;10.330;2024-03-23T07:22:28;0.50;;;0.50;;
3911;SDS011;1971;51.778;10.330;2024-03-23T07:24:54;0.50;;;0.40;;
3911;SDS011;1971;51.778;10.330;2024-03-23T07:27:20;0.40;;;0.37;;
3911;SDS011;1971;51.778;10.330;2024-03-23T07:29:47;1.30;;;0.40;;
3911;SDS011;1971;51.778;10.330;2024-03-23T07:32:16;0.50;;;0.50;;
3911;SDS011;1971;51.778;10.330;2024-03-23T07:34:42;0.60;;;0.50;;
3911;SDS011;1971;51.778;10.330;2024-03-23T07:37:09;0.60;;;0.50;;
3911;SDS011;1971;51.778;10.330;2024-03-23T07:39:35;0.40;;;0.40;;
3911;SDS011;1971;51.778;10.330;2024-03-23T07:42:02;0.50;;;0.40;;
3911;SDS011;1971;51.778;10.330;2024-03-23T07:44:29;0.50;;;0.50;;
3911;SDS011;1971;51.778;10.330;2024-03-23T07:46:55;0.50;;;0.40;;
3911;SDS011;1971;51.778;10.330;2024-03-23T07:49:24;0.70;;;0.40;;
3911;SDS011;1971;51.778;10.330;2024-03-23T07:51:50;1.03;;;0.50;;
3911;SDS011;1971;51.778;10.330;2024-03-23T07:54:17;0.50;;;0.50;;
3911;SDS011;1971;51.778;10.330;2024-03-23T07:56:44;0.83;;;0.53;;
3911;SDS011;1971;51.778;10.330;2024-03-23T07:59:11;0.90;;;0.50;;
3911;SDS011;1971;51.778;10.330;2024-03-23T08:01:37;0.60;;;0.60;;
3911;SDS011;1971;51.778;10.330;2024-03-23T08:04:03;0.80;;;0.40;;
3911;SDS011;1971;51.778;10.330;2024-03-23T08:06:34;0.80;;;0.67;;
3911;SDS011;1971;51.778;10.330;2024-03-23T08:09:00;0.60;;;0.53;;
3911;SDS011;1971;51.778;10.330;2024-03-23T08:11:27;0.70;;;0.50;;
3911;SDS011;1971;51.778;10.330;2024-03-23T08:13:54;0.60;;;0.50;;
3911;SDS011;1971;51.778;10.330;2024-03-23T08:16:21;0.67;;;0.67;;
3911;SDS011;1971;51.778;10.330;2024-03-23T08:18:47;0.73;;;0.73;;
3911;SDS011;1971;51.778;10.330;2024-03-23T08:21:13;2.03;;;0.83;;
3911;SDS011;1971;51.778;10.330;2024-03-23T08:23:42;0.93;;;0.83;;
3911;SDS011;1971;51.778;10.330;2024-03-23T08:26:09;0.80;;;0.67;;
3911;SDS011;1971;51.778;10.330;2024-03-23T08:28:36;1.40;;;0.93;;
3911;SDS011;1971;51.778;10.330;2024-03-23T08:31:04;0.80;;;0.80;;
3911;SDS011;1971;51.778;10.330;2024-03-23T08:33:32;0.67;;;0.67;;
3911;SDS011;1971;51.778;10.330;2024-03-23T08:35:59;0.60;;;0.60;;
3911;SDS011;1971;51.778;10.330;2024-03-23T08:38:27;1.40;;;1.00;;
3911;SDS011;1971;51.778;10.330;2024-03-23T08:41:00;1.00;;;1.00;;
3911;SDS011;1971;51.778;10.330;2024-03-23T08:43:28;1.03;;;0.93;;
3911;SDS011;1971;51.778;10.330;2024-03-23T08:46:02;1.90;;;1.43;;
3911;SDS011;1971;51.778;10.330;2024-03-23T08:48:30;2.50;;;1.33;;
3911;SDS011;1971;51.778;10.330;2024-03-23T08:51:00;2.87;;;1.20;;
3911;SDS011;1971;51.778;10.330;2024-03-23T08:53:27;2.93;;;1.30;;
3911;SDS011;1971;51.778;10.330;2024-03-23T08:55:54;5.17;;;1.80;;
3911;SDS011;1971;51.778;10.330;2024-03-23T08:58:24;3.50;;;3.03;;
3911;SDS011;1971;51.778;10.330;2024-03-23T09:00:51;2.40;;;1.47;;
3911;SDS011;1971;51.778;10.330;2024-03-23T09:03:18;1.20;;;1.00;;
3911;SDS011;1971;51.778;10.330;2024-03-23T09:05:44;3.60;;;1.13;;
3911;SDS011;1971;51.778;10.330;2024-03-23T09:08:11;1.33;;;0.90;;
3911;SDS011;1971;51.778;10.330;2024-03-23T09:10:38;1.43;;;1.30;;
3911;SDS011;1971;51.778;10.330;2024-03-23T09:13:05;1.20;;;1.00;;
3911;SDS011;1971;51.778;10.330;2024-03-23T09:15:34;1.10;;;0.63;;
3911;SDS011;1971;51.778;10.330;2024-03-23T09:18:02;1.37;;;1.27;;
3911;SDS011;1971;51.778;10.330;2024-03-23T09:20:29;1.70;;;1.20;;
3911;SDS011;1971;51.778;10.330;2024-03-23T09:22:59;0.83;;;0.83;;
3911;SDS011;1971;51.778;10.330;2024-03-23T09:25:25;3.03;;;1.23;;
3911;SDS011;1971;51.778;10.330;2024-03-23T09:27:51;6.33;;;1.83;;
3911;SDS011;1971;51.778;10.330;2024-03-23T09:30:17;2.03;;;1.10;;
3911;SDS011;1971;51.778;10.330;2024-03-23T09:32:47;7.30;;;1.90;;
3911;SDS011;1971;51.778;10.330;2024-03-23T09:35:14;1.93;;;1.70;;
3911;SDS011;1971;51.778;10.330;2024-03-23T09:37:40;3.37;;;2.40;;
3911;SDS011;1971;51.778;10.330;2024-03-23T09:40:08;2.80;;;2.53;;
3911;SDS011;1971;51.778;10.330;2024-03-23T09:42:36;4.30;;;2.27;;
3911;SDS011;1971;51.778;10.330;2024-03-23T09:45:03;6.17;;;2.67;;
3911;SDS011;1971;51.778;10.330;2024-03-23T09:47:32;3.17;;;2.57;;
3911;SDS011;1971;51.778;10.330;2024-03-23T09:50:02;3.93;;;2.90;;
3911;SDS011;1971;51.778;10.330;2024-03-23T09:52:29;5.00;;;2.70;;
3911;SDS011;1971;51.778;10.330;2024-03-23T09:54:56;7.93;;;3.00;;
3911;SDS011;1971;51.778;10.330;2024-03-23T09:57:22;6.70;;;3.83;;
3911;SDS011;1971;51.778;10.330;2024-03-23T09:59:48;7.50;;;3.50;;
3911;SDS011;1971;51.778;10.330;2024-03-23T10:02:15;5.10;;;3.73;;
3911;SDS011;1971;51.778;10.330;2024-03-23T10:04:42;5.27;;;3.90;;
3911;SDS011;1971;51.778;10.330;2024-03-23T10:07:13;5.30;;;3.57;;
3911;SDS011;1971;51.778;10.330;2024-03-23T10:09:40;9.23;;;5.03;;
3911;SDS011;1971;51.778;10.330;2024-03-23T10:12:08;7.20;;;3.67;;
3911;SDS011;1971;51.778;10.330;2024-03-23T10:14:36;9.70;;;4.77;;
3911;SDS011;1971;51.778;10.330;2024-03-23T10:17:12;7.67;;;4.93;;
3911;SDS011;1971;51.778;10.330;2024-03-23T10:19:40;9.30;;;6.20;;
3911;SDS011;1971;51.778;10.330;2024-03-23T10:22:08;12.10;;;6.87;;
3911;SDS011;1971;51.778;10.330;2024-03-23T10:24:37;9.23;;;5.97;;
3911;SDS011;1971;51.778;10.330;2024-03-23T10:27:04;11.20;;;7.30;;
3911;SDS011;1971;51.778;10.330;2024-03-23T10:29:31;8.00;;;7.00;;
3911;SDS011;1971;51.778;10.330;2024-03-23T10:32:10;9.57;;;6.57;;
3911;SDS011;1971;51.778;10.330;2024-03-23T10:34:37;7.37;;;6.60;;
3911;SDS011;1971;51.778;10.330;2024-03-23T10:37:05;9.60;;;6.10;;
3911;SDS011;1971;51.778;10.330;2024-03-23T10:39:32;8.60;;;6.47;;
3911;SDS011;1971;51.778;10.330;2024-03-23T10:42:03;7.53;;;5.70;;
3911;SDS011;1971;51.778;10.330;2024-03-23T10:44:31;8.57;;;6.07;;
3911;SDS011;1971;51.778;10.330;2024-03-23T10:46:58;7.63;;;6.83;;
3911;SDS011;1971;51.778;10.330;2024-03-23T10:49:25;8.80;;;5.20;;
3911;SDS011;1971;51.778;10.330;2024-03-23T10:51:52;7.10;;;6.40;;
3911;SDS011;1971;51.778;10.330;2024-03-23T10:54:19;8.30;;;6.57;;
3911;SDS011;1971;51.778;10.330;2024-03-23T10:56:47;9.63;;;6.17;;
3911;SDS011;1971;51.778;10.330;2024-03-23T10:59:19;9.20;;;5.10;;
3911;SDS011;1971;51.778;10.330;2024-03-23T11:01:55;5.93;;;5.43;;
3911;SDS011;1971;51.778;10.330;2024-03-23T11:04:32;8.20;;;5.57;;
3911;SDS011;1971;51.778;10.330;2024-03-23T11:06:59;7.03;;;5.93;;
3911;SDS011;1971;51.778;10.330;2024-03-23T11:09:38;6.30;;;5.23;;
3911;SDS011;1971;51.778;10.330;2024-03-23T11:12:17;8.90;;;5.17;;
3911;SDS011;1971;51.778;10.330;2024-03-23T11:14:53;3.93;;;3.33;;
3911;SDS011;1971;51.778;10.330;2024-03-23T11:17:21;4.50;;;3.17;;
3911;SDS011;1971;51.778;10.330;2024-03-23T11:19:55;4.97;;;3.40;;
3911;SDS011;1971;51.778;10.330;2024-03-23T11:22:38;4.50;;;3.07;;
3911;SDS011;1971;51.778;10.330;2024-03-23T11:25:13;3.70;;;2.73;;
3911;SDS011;1971;51.778;10.330;2024-03-23T11:27:40;4.77;;;3.97;;
3911;SDS011;1971;51.778;10.330;2024-03-23T11:30:13;9.93;;;5.57;;
3911;SDS011;1971;51.778;10.330;2024-03-23T11:32:41;10.27;;;6.30;;
3911;SDS011;1971;51.778;10.330;2024-03-23T11:35:08;8.43;;;5.90;;
3911;SDS011;1971;51.778;10.330;2024-03-23T11:37:35;7.30;;;5.90;;
3911;SDS011;1971;51.778;10.330;2024-03-23T11:40:16;16.33;;;6.23;;
3911;SDS011;1971;51.778;10.330;2024-03-23T11:42:43;7.77;;;5.17;;
3911;SDS011;1971;51.778;10.330;2024-03-23T11:45:13;5.60;;;5.10;;
3911;SDS011;1971;51.778;10.330;2024-03-23T11:47:40;6.30;;;5.10;;
3911;SDS011;1971;51.778;10.330;2024-03-23T11:50:06;6.73;;;4.43;;
3911;SDS011;1971;51.778;10.330;2024-03-23T11:52:33;1.33;;;1.23;;
3911;SDS011;1971;51.778;10.330;2024-03-23T11:55:05;2.07;;;1.90;;
3911;SDS011;1971;51.778;10.330;2024-03-23T11:57:32;1.30;;;1.20;;
3911;SDS011;1971;51.778;10.330;2024-03-23T11:59:59;1.10;;;1.10;;
3911;SDS011;1971;51.778;10.330;2024-03-23T12:02:28;1.07;;;1.00;;
3911;SDS011;1971;51.778;10.330;2024-03-23T12:04:55;1.23;;;1.13;;
3911;SDS011;1971;51.778;10.330;2024-03-23T12:07:21;1.80;;;1.37;;
3911;SDS011;1971;51.778;10.330;2024-03-23T12:10:01;4.57;;;1.90;;
3911;SDS011;1971;51.778;10.330;2024-03-23T12:12:28;2.27;;;1.77;;
3911;SDS011;1971;51.778;10.330;2024-03-23T12:15:00;2.07;;;1.87;;
3911;SDS011;1971;51.778;10.330;2024-03-23T12:17:31;2.77;;;1.70;;
3911;SDS011;1971;51.778;10.330;2024-03-23T12:19:58;2.40;;;2.03;;
3911;SDS011;1971;51.778;10.330;2024-03-23T12:22:24;5.87;;;3.67;;
3911;SDS011;1971;51.778;10.330;2024-03-23T12:24:51;2.40;;;1.73;;
3911;SDS011;1971;51.778;10.330;2024-03-23T12:27:17;4.53;;;1.90;;
3911;SDS011;1971;51.778;10.330;2024-03-23T12:29:44;2.63;;;2.43;;
3911;SDS011;1971;51.778;10.330;2024-03-23T12:32:11;2.93;;;2.67;;
3911;SDS011;1971;51.778;10.330;2024-03-23T12:34:41;4.97;;;3.60;;
3911;SDS011;1971;51.778;10.330;2024-03-23T12:37:08;4.83;;;3.50;;
3911;SDS011;1971;51.778;10.330;2024-03-23T12:39:35;3.37;;;3.17;;
3911;SDS011;1971;51.778;10.330;2024-03-23T12:42:01;3.97;;;3.67;;
3911;SDS011;1971;51.778;10.330;2024-03-23T12:44:28;5.43;;;2.93;;
3911;SDS011;1971;51.778;10.330;2024-03-23T12:46:55;4.33;;;3.10;;
3911;SDS011;1971;51.778;10.330;2024-03-23T12:49:21;2.97;;;2.63;;
3911;SDS011;1971;51.778;10.330;2024-03-23T12:51:54;3.70;;;3.40;;
3911;SDS011;1971;51.778;10.330;2024-03-23T12:54:22;3.17;;;2.97;;
3911;SDS011;1971;51.778;10.330;2024-03-23T12:56:49;2.50;;;2.30;;
3911;SDS011;1971;51.778;10.330;2024-03-23T12:59:15;2.60;;;2.40;;
3911;SDS011;1971;51.778;10.330;2024-03-23T13:01:42;2.53;;;2.33;;
3911;SDS011;1971;51.778;10.330;2024-03-23T13:04:09;2.90;;;2.70;;
3911;SDS011;1971;51.778;10.330;2024-03-23T13:06:35;2.97;;;2.63;;
3911;SDS011;1971;51.778;10.330;2024-03-23T13:09:04;2.90;;;2.70;;
3911;SDS011;1971;51.778;10.330;2024-03-23T13:11:31;2.27;;;2.07;;
3911;SDS011;1971;51.778;10.330;2024-03-23T13:13:57;3.03;;;2.00;;
3911;SDS011;1971;51.778;10.330;2024-03-23T13:16:23;1.67;;;1.57;;
3911;SDS011;1971;51.778;10.330;2024-03-23T13:18:50;1.87;;;1.50;;
3911;SDS011;1971;51.778;10.330;2024-03-23T13:21:16;2.47;;;2.27;;
3911;SDS011;1971;51.778;10.330;2024-03-23T13:23:46;1.60;;;1.50;;
3911;SDS011;1971;51.778;10.330;2024-03-23T13:26:15;2.10;;;1.90;;
3911;SDS011;1971;51.778;10.330;2024-03-23T13:28:42;3.70;;;1.70;;
3911;SDS011;1971;51.778;10.330;2024-03-23T13:31:09;1.63;;;1.53;;
3911;SDS011;1971;51.778;10.330;2024-03-23T13:33:35;2.70;;;1.60;;
3911;SDS011;1971;51.778;10.330;2024-03-23T13:36:02;2.67;;;2.33;;
3911;SDS011;1971;51.778;10.330;2024-03-23T13:38:29;2.30;;;1.90;;
3911;SDS011;1971;51.778;10.330;2024-03-23T13:40:56;1.77;;;1.67;;
3911;SDS011;1971;51.778;10.330;2024-03-23T13:43:26;2.33;;;2.13;;
3911;SDS011;1971;51.778;10.330;2024-03-23T13:45:54;1.87;;;1.70;;
3911;SDS011;1971;51.778;10.330;2024-03-23T13:48:23;2.10;;;1.83;;
3911;SDS011;1971;51.778;10.330;2024-03-23T13:50:56;2.03;;;1.90;;
3911;SDS011;1971;51.778;10.330;2024-03-23T13:53:23;3.63;;;1.83;;
3911;SDS011;1971;51.778;10.330;2024-03-23T13:55:49;1.93;;;1.80;;
3911;SDS011;1971;51.778;10.330;2024-03-23T13:58:16;3.37;;;2.47;;
3911;SDS011;1971;51.778;10.330;2024-03-23T14:00:45;2.03;;;1.93;;
3911;SDS011;1971;51.778;10.330;2024-03-23T14:03:12;2.20;;;2.10;;
3911;SDS011;1971;51.778;10.330;2024-03-23T14:05:40;2.10;;;2.00;;
3911;SDS011;1971;51.778;10.330;2024-03-23T14:08:07;2.97;;;2.60;;
3911;SDS011;1971;51.778;10.330;2024-03-23T14:10:34;2.20;;;2.00;;
3911;SDS011;1971;51.778;10.330;2024-03-23T14:13:01;3.20;;;2.30;;
3911;SDS011;1971;51.778;10.330;2024-03-23T14:15:27;2.40;;;2.20;;
3911;SDS011;1971;51.778;10.330;2024-03-23T14:17:57;2.10;;;1.90;;
3911;SDS011;1971;51.778;10.330;2024-03-23T14:20:25;3.00;;;2.77;;
3911;SDS011;1971;51.778;10.330;2024-03-23T14:22:52;3.37;;;3.07;;
3911;SDS011;1971;51.778;10.330;2024-03-23T14:25:19;3.10;;;2.90;;
3911;SDS011;1971;51.778;10.330;2024-03-23T14:27:45;4.00;;;3.60;;
3911;SDS011;1971;51.778;10.330;2024-03-23T14:30:12;4.33;;;4.00;;
3911;SDS011;1971;51.778;10.330;2024-03-23T14:32:39;6.10;;;3.33;;
3911;SDS011;1971;51.778;10.330;2024-03-23T14:35:09;4.13;;;3.83;;
3911;SDS011;1971;51.778;10.330;2024-03-23T14:37:36;4.30;;;3.90;;
3911;SDS011;1971;51.778;10.330;2024-03-23T14:40:02;6.30;;;4.57;;
3911;SDS011;1971;51.778;10.330;2024-03-23T14:42:30;2.50;;;2.30;;
3911;SDS011;1971;51.778;10.330;2024-03-23T14:44:57;2.50;;;2.30;;
3911;SDS011;1971;51.778;10.330;2024-03-23T14:47:23;2.60;;;2.40;;
3911;SDS011;1971;51.778;10.330;2024-03-23T14:49:50;2.33;;;2.13;;
3911;SDS011;1971;51.778;10.330;2024-03-23T14:52:19;2.33;;;2.13;;
3911;SDS011;1971;51.778;10.330;2024-03-23T14:54:46;2.03;;;1.83;;
3911;SDS011;1971;51.778;10.330;2024-03-23T14:57:13;4.60;;;3.20;;
3911;SDS011;1971;51.778;10.330;2024-03-23T14:59:39;3.40;;;3.10;;
3911;SDS011;1971;51.778;10.330;2024-03-23T15:02:06;3.00;;;2.20;;
3911;SDS011;1971;51.778;10.330;2024-03-23T15:04:32;4.60;;;3.27;;
3911;SDS011;1971;51.778;10.330;2024-03-23T15:06:59;3.10;;;2.80;;
3911;SDS011;1971;51.778;10.330;2024-03-23T15:09:28;2.67;;;2.47;;
3911;SDS011;1971;51.778;10.330;2024-03-23T15:11:54;2.80;;;2.60;;
3911;SDS011;1971;51.778;10.330;2024-03-23T15:14:21;4.03;;;3.73;;
3911;SDS011;1971;51.778;10.330;2024-03-23T15:16:49;3.67;;;3.37;;
3911;SDS011;1971;51.778;10.330;2024-03-23T15:19:15;3.37;;;3.17;;
3911;SDS011;1971;51.778;10.330;2024-03-23T15:21:42;3.50;;;3.20;;
3911;SDS011;1971;51.778;10.330;2024-03-23T15:24:08;3.67;;;3.37;;
3911;SDS011;1971;51.778;10.330;2024-03-23T15:26:37;4.00;;;3.70;;
3911;SDS011;1971;51.778;10.330;2024-03-23T15:29:04;4.33;;;3.63;;
3911;SDS011;1971;51.778;10.330;2024-03-23T15:31:35;3.03;;;2.80;;
3911;SDS011;1971;51.778;10.330;2024-03-23T15:34:02;3.63;;;3.43;;
3911;SDS011;1971;51.778;10.330;2024-03-23T15:36:29;4.50;;;4.03;;
3911;SDS011;1971;51.778;10.330;2024-03-23T15:38:55;4.13;;;3.13;;
3911;SDS011;1971;51.778;10.330;2024-03-23T15:41:22;3.30;;;3.00;;
3911;SDS011;1971;51.778;10.330;2024-03-23T15:43:51;6.50;;;3.40;;
3911;SDS011;1971;51.778;10.330;2024-03-23T15:46:18;4.67;;;3.07;;
3911;SDS011;1971;51.778;10.330;2024-03-23T15:48:45;3.63;;;3.20;;
3911;SDS011;1971;51.778;10.330;2024-03-23T15:51:12;9.90;;;4.37;;
3911;SDS011;1971;51.778;10.330;2024-03-23T15:53:39;4.70;;;3.40;;
3911;SDS011;1971;51.778;10.330;2024-03-23T15:56:06;4.87;;;3.97;;